createdAt,value
2017-08-02T00:00:43.860Z,91.76
2017-08-02T00:03:12.185Z,92.09
2017-08-02T00:05:40.512Z,91.56
2017-08-02T00:08:08.864Z,91.20
2017-08-02T00:10:37.191Z,91.69
2017-08-02T00:13:05.925Z,92.08
2017-08-02T00:15:35.027Z,91.64
2017-08-02T00:18:03.379Z,91.33
2017-08-02T00:20:31.767Z,91.29
2017-08-02T00:23:00.111Z,91.40
2017-08-02T00:25:28.481Z,91.08
2017-08-02T00:27:56.820Z,90.49
2017-08-02T00:30:25.199Z,90.88
2017-08-02T00:32:53.610Z,90.38
2017-08-02T00:35:21.948Z,90.51
2017-08-02T00:37:51.278Z,91.17
2017-08-02T00:40:19.661Z,91.28
2017-08-02T00:42:47.989Z,91.02
2017-08-02T00:45:16.347Z,91.02
2017-08-02T00:47:44.703Z,90.58
2017-08-02T00:50:13.024Z,91.97
2017-08-02T00:52:41.896Z,91.79
2017-08-02T00:55:10.233Z,90.60
2017-08-02T00:57:38.838Z,90.69
2017-08-02T01:00:07.170Z,90.96
2017-08-02T01:02:36.058Z,90.79
2017-08-02T01:05:04.408Z,90.35
2017-08-02T01:07:32.723Z,90.40
2017-08-02T01:10:01.890Z,90.83
2017-08-02T01:12:30.203Z,91.41
2017-08-02T01:14:58.556Z,91.13
2017-08-02T01:17:26.909Z,90.78
2017-08-02T01:19:55.234Z,91.06
2017-08-02T01:22:23.585Z,90.81
2017-08-02T01:24:51.924Z,90.33
2017-08-02T01:27:20.411Z,90.86
2017-08-02T01:29:48.760Z,90.28
2017-08-02T01:32:17.856Z,89.90
2017-08-02T01:34:46.574Z,89.99
2017-08-02T01:37:14.908Z,90.52
2017-08-02T01:39:43.311Z,89.73
2017-08-02T01:42:11.668Z,90.40
2017-08-02T01:44:40.002Z,90.97
2017-08-02T01:47:08.756Z,91.30
2017-08-02T01:49:37.092Z,91.25
2017-08-02T01:52:05.497Z,91.44
2017-08-02T01:54:33.836Z,91.42
2017-08-02T01:57:02.180Z,92.01
2017-08-02T01:59:30.551Z,91.46
2017-08-02T02:01:59.634Z,91.20
2017-08-02T02:04:28.008Z,90.63
2017-08-02T02:06:56.363Z,90.77
2017-08-02T02:09:24.678Z,91.48
2017-08-02T02:11:53.032Z,91.60
2017-08-02T02:14:21.400Z,91.66
2017-08-02T02:16:50.161Z,91.35
2017-08-02T02:19:18.526Z,91.20
2017-08-02T02:21:47.608Z,91.53
2017-08-02T02:24:15.996Z,91.81
2017-08-02T02:26:44.355Z,91.50
2017-08-02T02:29:12.692Z,91.83
2017-08-02T02:31:41.052Z,91.70
2017-08-02T02:34:09.382Z,91.43
2017-08-02T02:36:38.170Z,91.10
2017-08-02T02:39:06.524Z,90.94
2017-08-02T02:41:35.742Z,90.87
2017-08-02T02:44:04.503Z,90.82
2017-08-02T02:46:32.818Z,90.77
2017-08-02T02:49:01.582Z,90.90
2017-08-02T02:51:29.935Z,91.09
2017-08-02T02:53:58.282Z,91.36
2017-08-02T02:56:27.012Z,91.07
2017-08-02T02:58:55.337Z,90.87
2017-08-02T03:01:23.682Z,91.55
2017-08-02T03:03:52.435Z,90.98
2017-08-02T03:06:21.540Z,91.44
2017-08-02T03:08:49.884Z,90.92
2017-08-02T03:11:18.219Z,90.72
2017-08-02T03:13:46.573Z,90.83
2017-08-02T03:16:15.666Z,90.58
2017-08-02T03:18:44.023Z,90.27
2017-08-02T03:21:12.375Z,90.55
2017-08-02T03:23:40.713Z,90.30
2017-08-02T03:26:09.061Z,89.70
2017-08-02T03:28:37.755Z,89.93
2017-08-02T03:31:06.891Z,90.08
2017-08-02T03:33:35.239Z,90.51
2017-08-02T03:36:03.557Z,90.13
2017-08-02T03:38:31.957Z,89.67
2017-08-02T03:41:00.316Z,89.88
2017-08-02T03:43:28.660Z,89.88
2017-08-02T03:45:57.777Z,90.23
2017-08-02T03:48:26.114Z,90.65
2017-08-02T03:50:55.443Z,90.09
2017-08-02T03:53:23.851Z,89.96
2017-08-02T03:55:52.185Z,90.74
2017-08-02T03:58:20.523Z,90.23
2017-08-02T04:00:48.888Z,90.08
2017-08-02T04:03:17.240Z,90.26
2017-08-02T04:05:46.324Z,90.32
2017-08-02T04:08:14.674Z,89.83
2017-08-02T04:10:43.038Z,89.71
2017-08-02T04:13:11.373Z,89.71
2017-08-02T04:15:40.500Z,89.44
2017-08-02T04:18:08.842Z,89.57
2017-08-02T04:20:37.497Z,89.70
2017-08-02T04:23:05.814Z,89.57
2017-08-02T04:25:34.891Z,89.39
2017-08-02T04:28:03.241Z,89.53
2017-08-02T04:30:31.578Z,89.53
2017-08-02T04:33:00.680Z,89.41
2017-08-02T04:35:29.035Z,89.90
2017-08-02T04:37:58.271Z,89.47
2017-08-02T04:40:26.615Z,89.29
2017-08-02T04:42:54.951Z,89.31
2017-08-02T04:45:23.295Z,89.04
2017-08-02T04:47:51.635Z,89.09
2017-08-02T04:50:19.950Z,89.27
2017-08-02T04:52:49.273Z,89.29
2017-08-02T04:55:17.608Z,89.09
2017-08-02T04:57:45.951Z,89.03
2017-08-02T05:00:14.299Z,89.08
2017-08-02T05:02:42.739Z,88.82
2017-08-02T05:05:11.344Z,88.96
2017-08-02T05:07:40.436Z,88.65
2017-08-02T05:10:08.770Z,88.54
2017-08-02T05:12:37.129Z,88.30
2017-08-02T05:15:05.692Z,88.27
2017-08-02T05:17:34.094Z,88.93
2017-08-02T05:20:02.864Z,89.06
2017-08-02T05:22:31.231Z,88.51
2017-08-02T05:25:00.345Z,88.41
2017-08-02T05:27:28.663Z,88.40
2017-08-02T05:29:57.007Z,88.58
2017-08-02T05:32:25.353Z,89.47
2017-08-02T05:34:53.699Z,90.09
2017-08-02T05:37:22.294Z,89.71
2017-08-02T05:39:50.616Z,90.23
2017-08-02T05:42:19.291Z,90.36
2017-08-02T05:44:47.626Z,90.53
2017-08-02T05:47:16.064Z,90.35
2017-08-02T05:49:44.439Z,89.76
2017-08-02T05:52:12.811Z,90.04
2017-08-02T05:54:41.528Z,90.29
2017-08-02T05:57:09.859Z,91.01
2017-08-02T05:59:38.198Z,91.07
2017-08-02T06:02:10.768Z,91.27
2017-08-02T06:04:39.419Z,91.65
2017-08-02T06:07:07.780Z,91.11
2017-08-02T06:09:36.140Z,90.54
2017-08-02T06:12:04.474Z,89.80
2017-08-02T06:14:32.810Z,89.27
2017-08-02T06:17:01.165Z,89.61
2017-08-02T06:19:29.493Z,90.08
2017-08-02T06:21:57.841Z,89.89
2017-08-02T06:24:26.173Z,89.48
2017-08-02T06:26:54.521Z,89.55
2017-08-02T06:29:22.884Z,89.33
2017-08-02T06:31:51.221Z,88.54
2017-08-02T06:34:19.875Z,88.59
2017-08-02T06:36:48.222Z,88.22
2017-08-02T06:39:16.562Z,87.74
2017-08-02T06:41:44.908Z,87.50
2017-08-02T06:44:14.043Z,87.40
2017-08-02T06:46:42.653Z,87.43
2017-08-02T06:49:10.985Z,87.72
2017-08-02T06:51:39.351Z,87.94
2017-08-02T06:54:07.834Z,87.77
2017-08-02T06:56:36.169Z,88.22
2017-08-02T06:59:04.517Z,88.13
2017-08-02T07:01:32.870Z,88.22
2017-08-02T07:04:01.201Z,88.68
2017-08-02T07:06:29.566Z,88.68
2017-08-02T07:08:57.899Z,89.00
2017-08-02T07:11:26.490Z,88.79
2017-08-02T07:13:54.817Z,88.67
2017-08-02T07:16:23.178Z,88.52
2017-08-02T07:18:51.784Z,88.51
2017-08-02T07:21:20.113Z,89.15
2017-08-02T07:23:48.451Z,89.13
2017-08-02T07:26:16.794Z,88.88
2017-08-02T07:28:45.150Z,89.26
2017-08-02T07:31:13.501Z,89.04
2017-08-02T07:33:41.843Z,89.28
2017-08-02T07:36:10.203Z,89.44
2017-08-02T07:38:38.551Z,89.08
2017-08-02T07:41:06.900Z,88.93
2017-08-02T07:43:35.281Z,88.81
2017-08-02T07:46:03.634Z,88.79
2017-08-02T07:48:31.976Z,88.78
2017-08-02T07:51:00.343Z,89.01
2017-08-02T07:53:28.692Z,89.04
2017-08-02T07:55:57.037Z,89.62
2017-08-02T07:58:25.656Z,89.63
2017-08-02T08:00:54.003Z,88.78
2017-08-02T08:03:22.875Z,88.94
2017-08-02T08:05:51.879Z,88.22
2017-08-02T08:08:20.726Z,88.12
2017-08-02T08:10:49.968Z,87.68
2017-08-02T08:13:18.920Z,86.58
2017-08-02T08:15:47.919Z,87.21
2017-08-02T08:18:17.649Z,86.17
2017-08-02T08:20:46.580Z,85.48
2017-08-02T08:23:14.937Z,85.25
2017-08-02T08:25:43.337Z,85.53
2017-08-02T08:28:11.695Z,85.01
2017-08-02T08:30:40.101Z,84.99
2017-08-02T08:33:08.446Z,85.13
2017-08-02T08:35:36.785Z,85.37
2017-08-02T08:38:05.140Z,83.94
2017-08-02T08:40:33.492Z,83.23
2017-08-02T08:43:01.852Z,83.43
2017-08-02T08:45:30.207Z,82.95
2017-08-02T08:47:58.556Z,82.03
2017-08-02T08:50:26.894Z,81.93
2017-08-02T08:52:55.267Z,81.44
2017-08-02T08:55:23.882Z,81.18
2017-08-02T08:57:52.217Z,81.32
2017-08-02T09:00:20.557Z,80.50
2017-08-02T09:02:48.895Z,78.35
2017-08-02T09:05:17.243Z,78.44
2017-08-02T09:07:45.889Z,77.48
2017-08-02T09:10:14.240Z,77.30
2017-08-02T09:12:42.567Z,78.50
2017-08-02T09:15:10.908Z,76.68
2017-08-02T09:17:39.252Z,74.63
2017-08-02T09:20:07.583Z,74.92
2017-08-02T09:22:35.952Z,77.08
2017-08-02T09:25:04.275Z,74.49
2017-08-02T09:27:32.633Z,72.56
2017-08-02T09:30:00.969Z,71.21
2017-08-02T09:32:29.317Z,70.68
2017-08-02T09:34:57.687Z,72.02
2017-08-02T09:37:26.027Z,72.21
2017-08-02T09:39:54.382Z,71.74
2017-08-02T09:42:22.705Z,67.74
2017-08-02T09:44:51.348Z,67.79
2017-08-02T09:47:19.677Z,68.93
2017-08-02T09:49:48.017Z,69.78
2017-08-02T09:52:16.375Z,68.65
2017-08-02T09:54:44.704Z,65.33
2017-08-02T09:57:13.318Z,66.46
2017-08-02T09:59:41.647Z,65.48
2017-08-02T10:02:09.965Z,61.73
2017-08-02T10:04:38.322Z,64.56
2017-08-02T10:07:06.656Z,65.76
2017-08-02T10:09:35.297Z,64.26
2017-08-02T10:12:03.666Z,66.65
2017-08-02T10:14:31.988Z,65.41
2017-08-02T10:17:01.288Z,65.27
2017-08-02T10:19:29.699Z,63.33
2017-08-02T10:21:58.029Z,62.55
2017-08-02T10:24:26.385Z,65.33
2017-08-02T10:26:54.712Z,64.32
2017-08-02T10:29:23.051Z,60.79
2017-08-02T10:31:51.384Z,61.87
2017-08-02T10:34:19.737Z,62.30
2017-08-02T10:36:48.076Z,63.08
2017-08-02T10:39:16.395Z,62.00
2017-08-02T10:41:45.541Z,61.10
2017-08-02T10:44:13.867Z,62.27
2017-08-02T10:46:42.268Z,63.50
2017-08-02T10:49:10.611Z,65.01
2017-08-02T10:51:38.940Z,64.82
2017-08-02T10:54:07.301Z,65.38
2017-08-02T10:56:35.641Z,62.65
2017-08-02T10:59:04.018Z,63.28
2017-08-02T11:01:32.369Z,62.49
2017-08-02T11:04:00.724Z,62.59
2017-08-02T11:06:29.073Z,63.68
2017-08-02T11:08:57.429Z,62.27
2017-08-02T11:11:25.799Z,61.69
2017-08-02T11:13:54.163Z,61.19
2017-08-02T11:16:22.489Z,58.98
2017-08-02T11:18:50.862Z,62.08
2017-08-02T11:21:19.220Z,61.91
2017-08-02T11:23:47.553Z,60.77
2017-08-02T11:26:15.885Z,59.82
2017-08-02T11:28:44.224Z,62.66
2017-08-02T11:31:12.562Z,63.20
2017-08-02T11:33:40.891Z,62.79
2017-08-02T11:36:09.204Z,60.44
2017-08-02T11:38:37.559Z,60.61
2017-08-02T11:41:05.879Z,61.52
2017-08-02T11:43:34.235Z,61.22
2017-08-02T11:46:02.541Z,58.40
2017-08-02T11:48:30.914Z,56.89
2017-08-02T11:50:59.275Z,57.91
2017-08-02T11:53:27.587Z,55.52
2017-08-02T11:55:55.928Z,55.09
2017-08-02T11:58:25.149Z,55.52
2017-08-02T12:00:53.502Z,56.22
2017-08-02T12:03:21.838Z,57.36
2017-08-02T12:05:50.212Z,56.91
2017-08-02T12:08:18.833Z,56.88
2017-08-02T12:10:47.153Z,56.88
2017-08-02T12:13:15.491Z,57.54
2017-08-02T12:15:43.837Z,56.91
2017-08-02T12:18:12.173Z,58.68
2017-08-02T12:20:40.781Z,58.13
2017-08-02T12:23:09.136Z,61.14
2017-08-02T12:25:37.456Z,60.47
2017-08-02T12:28:05.888Z,58.38
2017-08-02T12:30:34.327Z,59.76
2017-08-02T12:33:02.691Z,60.63
2017-08-02T12:35:31.026Z,59.92
2017-08-02T12:37:59.413Z,57.72
2017-08-02T12:40:27.798Z,58.10
2017-08-02T12:42:56.149Z,59.12
2017-08-02T12:45:24.517Z,57.68
2017-08-02T12:47:52.855Z,58.19
2017-08-02T12:50:21.217Z,59.64
2017-08-02T12:52:49.577Z,59.50
2017-08-02T12:55:18.629Z,59.00
2017-08-02T12:57:47.324Z,60.25
2017-08-02T13:00:15.643Z,59.43
2017-08-02T13:02:43.966Z,60.09
2017-08-02T13:05:12.330Z,58.76
2017-08-02T13:07:40.674Z,59.90
2017-08-02T13:10:09.031Z,59.70
2017-08-02T13:12:37.367Z,61.41
2017-08-02T13:15:05.728Z,61.03
2017-08-02T13:17:34.088Z,60.30
2017-08-02T13:20:02.436Z,59.31
2017-08-02T13:22:31.034Z,59.69
2017-08-02T13:24:59.357Z,61.03
2017-08-02T13:27:27.697Z,59.21
2017-08-02T13:29:56.111Z,58.66
2017-08-02T13:32:24.448Z,59.59
2017-08-02T13:34:53.099Z,61.41
2017-08-02T13:37:21.437Z,60.32
2017-08-02T13:39:49.784Z,61.79
2017-08-02T13:42:18.144Z,60.08
2017-08-02T13:44:47.259Z,60.74
2017-08-02T13:47:15.652Z,61.88
2017-08-02T13:49:43.980Z,59.03
2017-08-02T13:52:12.345Z,59.69
2017-08-02T13:54:40.710Z,58.73
2017-08-02T13:57:09.052Z,58.68
2017-08-02T13:59:38.426Z,58.24
2017-08-02T14:02:06.760Z,57.55
2017-08-02T14:04:35.100Z,57.61
2017-08-02T14:07:04.205Z,54.64
2017-08-02T14:09:33.712Z,54.74
2017-08-02T14:12:03.424Z,55.85
2017-08-02T14:14:31.777Z,56.20
2017-08-02T14:17:00.150Z,56.75
2017-08-02T14:19:28.506Z,59.89
2017-08-02T14:21:56.830Z,58.28
2017-08-02T14:24:25.949Z,55.64
2017-08-02T14:26:54.280Z,56.63
2017-08-02T14:29:22.619Z,56.99
2017-08-02T14:31:50.956Z,56.58
2017-08-02T14:34:19.331Z,56.85
2017-08-02T14:36:47.690Z,55.73
2017-08-02T14:39:16.444Z,56.71
2017-08-02T14:41:44.764Z,55.05
2017-08-02T14:44:13.138Z,54.94
2017-08-02T14:46:41.921Z,53.76
2017-08-02T14:49:10.259Z,53.12
2017-08-02T14:51:39.057Z,53.30
2017-08-02T14:54:07.395Z,54.56
2017-08-02T14:56:35.762Z,53.39
2017-08-02T14:59:04.112Z,54.89
2017-08-02T15:01:32.453Z,53.98
2017-08-02T15:04:01.971Z,53.39
2017-08-02T15:06:30.301Z,54.04
2017-08-02T15:08:58.615Z,55.20
2017-08-02T15:11:26.998Z,52.59
2017-08-02T15:13:55.344Z,51.14
2017-08-02T15:16:23.724Z,52.21
2017-08-02T15:18:52.090Z,54.51
2017-08-02T15:21:20.413Z,51.88
2017-08-02T15:23:49.555Z,53.26
2017-08-02T15:26:17.881Z,54.97
2017-08-02T15:28:46.248Z,57.52
2017-08-02T15:31:14.604Z,54.05
2017-08-02T15:33:42.955Z,56.96
2017-08-02T15:36:11.359Z,56.28
2017-08-02T15:38:39.713Z,55.47
2017-08-02T15:41:08.060Z,56.38
2017-08-02T15:43:36.779Z,58.13
2017-08-02T15:46:05.150Z,57.14
2017-08-02T15:48:33.488Z,54.74
2017-08-02T15:51:01.876Z,57.30
2017-08-02T15:53:30.591Z,54.85
2017-08-02T15:56:01.044Z,58.65
2017-08-02T15:58:29.388Z,59.58
2017-08-02T16:00:57.715Z,60.15
2017-08-02T16:03:26.063Z,60.13
2017-08-02T16:05:54.415Z,60.43
2017-08-02T16:08:23.726Z,60.88
2017-08-02T16:10:52.062Z,62.63
2017-08-02T16:13:20.387Z,63.37
2017-08-02T16:15:48.745Z,60.06
2017-08-02T16:18:17.067Z,61.58
2017-08-02T16:20:45.683Z,62.28
2017-08-02T16:23:14.035Z,61.60
2017-08-02T16:25:42.396Z,62.47
2017-08-02T16:28:10.748Z,64.06
2017-08-02T16:30:39.097Z,64.22
2017-08-02T16:33:07.721Z,64.30
2017-08-02T16:35:36.077Z,63.97
2017-08-02T16:38:04.395Z,63.38
2017-08-02T16:40:32.763Z,63.01
2017-08-02T16:43:01.098Z,63.09
2017-08-02T16:45:29.769Z,62.56
2017-08-02T16:47:58.104Z,63.98
2017-08-02T16:50:26.455Z,65.11
2017-08-02T16:52:54.824Z,64.79
2017-08-02T16:55:23.156Z,64.99
2017-08-02T16:57:51.509Z,65.26
2017-08-02T17:00:19.825Z,65.54
2017-08-02T17:02:48.245Z,65.91
2017-08-02T17:05:16.592Z,66.50
2017-08-02T17:07:44.940Z,66.97
2017-08-02T17:10:13.283Z,67.17
2017-08-02T17:12:41.656Z,67.46
2017-08-02T17:15:09.998Z,67.48
2017-08-02T17:17:38.365Z,67.51
2017-08-02T17:20:06.711Z,68.32
2017-08-02T17:22:35.042Z,68.56
2017-08-02T17:25:03.404Z,68.78
2017-08-02T17:27:31.819Z,68.87
2017-08-02T17:30:00.457Z,68.44
2017-08-02T17:32:28.814Z,68.61
2017-08-02T17:34:57.192Z,69.24
2017-08-02T17:37:25.559Z,68.71
2017-08-02T17:39:53.910Z,69.33
2017-08-02T17:42:22.525Z,69.83
2017-08-02T17:44:50.909Z,70.69
2017-08-02T17:47:19.270Z,71.45
2017-08-02T17:49:47.634Z,71.72
2017-08-02T17:52:15.973Z,71.37
2017-08-02T17:54:44.344Z,71.27
2017-08-02T17:57:12.691Z,71.41
2017-08-02T17:59:41.028Z,70.98
2017-08-02T18:02:09.371Z,71.40
2017-08-02T18:04:37.700Z,71.85
2017-08-02T18:07:06.066Z,72.35
2017-08-02T18:09:34.396Z,72.18
2017-08-02T18:12:02.991Z,71.63
2017-08-02T18:14:31.317Z,72.98
2017-08-02T18:16:59.692Z,73.24
2017-08-02T18:19:28.570Z,74.12
2017-08-02T18:21:56.896Z,74.66
2017-08-02T18:24:25.268Z,74.97
2017-08-02T18:26:53.653Z,74.56
2017-08-02T18:29:21.999Z,75.38
2017-08-02T18:31:50.376Z,75.51
2017-08-02T18:34:18.724Z,75.96
2017-08-02T18:36:47.355Z,75.82
2017-08-02T18:39:15.693Z,76.85
2017-08-02T18:41:44.040Z,76.89
2017-08-02T18:44:12.646Z,77.27
2017-08-02T18:46:40.991Z,78.03
2017-08-02T18:49:09.342Z,78.29
2017-08-02T18:51:37.714Z,77.60
2017-08-02T18:54:06.104Z,78.02
2017-08-02T18:56:34.766Z,78.68
2017-08-02T18:59:03.118Z,79.30
2017-08-02T19:01:31.462Z,79.06
2017-08-02T19:03:59.841Z,79.67
2017-08-02T19:06:28.172Z,78.97
2017-08-02T19:08:56.563Z,79.46
2017-08-02T19:11:24.920Z,80.06
2017-08-02T19:13:53.271Z,79.60
2017-08-02T19:16:21.631Z,80.48
2017-08-02T19:18:50.001Z,80.51
2017-08-02T19:21:18.372Z,80.78
2017-08-02T19:23:46.715Z,80.97
2017-08-02T19:26:15.099Z,81.19
2017-08-02T19:28:43.476Z,81.10
2017-08-02T19:31:11.811Z,80.84
2017-08-02T19:33:40.419Z,81.15
2017-08-02T19:36:08.751Z,81.46
2017-08-02T19:38:37.092Z,80.94
2017-08-02T19:41:05.508Z,80.79
2017-08-02T19:43:33.843Z,81.32
2017-08-02T19:46:02.466Z,81.61
2017-08-02T19:48:30.811Z,81.65
2017-08-02T19:50:59.165Z,82.29
2017-08-02T19:53:27.541Z,82.48
2017-08-02T19:55:55.883Z,82.00
2017-08-02T19:58:24.250Z,81.14
2017-08-02T20:00:52.582Z,82.10
2017-08-02T20:03:20.945Z,82.51
2017-08-02T20:05:49.385Z,81.95
2017-08-02T20:08:17.750Z,81.54
2017-08-02T20:10:46.117Z,81.93
2017-08-02T20:13:14.455Z,82.95
2017-08-02T20:15:42.822Z,83.16
2017-08-02T20:18:11.479Z,82.53
2017-08-02T20:20:39.823Z,82.88
2017-08-02T20:23:08.159Z,82.85
2017-08-02T20:25:36.822Z,82.58
2017-08-02T20:28:05.178Z,83.11
2017-08-02T20:30:33.509Z,83.59
2017-08-02T20:33:01.869Z,84.28
2017-08-02T20:35:30.218Z,84.52
2017-08-02T20:37:58.571Z,84.14
2017-08-02T20:40:26.942Z,84.05
2017-08-02T20:42:55.418Z,84.22
2017-08-02T20:45:23.814Z,84.62
2017-08-02T20:47:52.473Z,85.35
2017-08-02T20:50:20.793Z,84.95
2017-08-02T20:52:49.139Z,84.74
2017-08-02T20:55:17.487Z,84.70
2017-08-02T20:57:45.833Z,85.03
2017-08-02T21:00:14.204Z,84.52
2017-08-02T21:02:42.544Z,84.13
2017-08-02T21:05:10.873Z,84.77
2017-08-02T21:07:39.244Z,84.05
2017-08-02T21:10:07.608Z,84.13
2017-08-02T21:12:35.983Z,84.60
2017-08-02T21:15:04.598Z,84.43
2017-08-02T21:17:32.933Z,84.59
2017-08-02T21:20:01.256Z,85.25
2017-08-02T21:22:29.614Z,85.01
2017-08-02T21:24:57.963Z,85.36
2017-08-02T21:27:26.328Z,85.75
2017-08-02T21:29:54.682Z,85.90
2017-08-02T21:32:23.003Z,85.12
2017-08-02T21:34:51.359Z,85.27
2017-08-02T21:37:19.717Z,85.14
2017-08-02T21:39:48.076Z,85.76
2017-08-02T21:42:16.405Z,85.78
2017-08-02T21:44:44.752Z,85.43
2017-08-02T21:47:13.139Z,85.05
2017-08-02T21:49:41.510Z,85.66
2017-08-02T21:52:09.917Z,85.62
2017-08-02T21:54:38.283Z,84.97
2017-08-02T21:57:06.605Z,84.67
2017-08-02T21:59:34.956Z,84.94
2017-08-02T22:02:03.316Z,85.58
2017-08-02T22:04:31.663Z,85.91
2017-08-02T22:07:00.033Z,85.24
2017-08-02T22:09:28.375Z,85.04
2017-08-02T22:11:56.743Z,84.92
2017-08-02T22:14:25.112Z,85.56
2017-08-02T22:16:53.440Z,86.26
2017-08-02T22:19:21.785Z,86.13
2017-08-02T22:21:50.112Z,85.15
2017-08-02T22:24:18.714Z,86.25
2017-08-02T22:26:47.055Z,86.32
2017-08-02T22:29:15.392Z,85.85
2017-08-02T22:31:43.735Z,86.06
2017-08-02T22:34:12.070Z,86.56
2017-08-02T22:36:40.684Z,86.48
2017-08-02T22:39:09.025Z,85.84
2017-08-02T22:41:37.393Z,86.95
2017-08-02T22:44:05.791Z,87.31
2017-08-02T22:46:34.130Z,85.87
2017-08-02T22:49:02.742Z,86.37
2017-08-02T22:51:31.089Z,86.92
2017-08-02T22:53:59.413Z,87.43
2017-08-02T22:56:27.757Z,86.46
2017-08-02T22:58:56.084Z,86.63
2017-08-02T23:01:24.421Z,87.44
2017-08-02T23:03:52.768Z,87.83
2017-08-02T23:06:21.103Z,87.52
2017-08-02T23:08:49.470Z,87.18
2017-08-02T23:11:17.839Z,87.41
2017-08-02T23:13:46.206Z,86.83
2017-08-02T23:16:14.595Z,86.51
2017-08-02T23:18:42.950Z,87.93
2017-08-02T23:21:11.389Z,88.02
2017-08-02T23:23:39.743Z,87.41
2017-08-02T23:26:08.390Z,87.40
2017-08-02T23:28:36.721Z,87.80
2017-08-02T23:31:05.056Z,87.85
2017-08-02T23:33:33.417Z,87.64
2017-08-02T23:36:02.335Z,87.83
2017-08-02T23:38:30.696Z,87.84
2017-08-02T23:40:59.033Z,87.33
2017-08-02T23:43:27.374Z,88.33
2017-08-02T23:45:55.732Z,88.73
2017-08-02T23:48:24.060Z,88.13
2017-08-02T23:50:52.676Z,87.38
2017-08-02T23:53:21.057Z,86.96
2017-08-02T23:55:49.388Z,87.55
2017-08-02T23:58:17.748Z,87.70
